Time;durP1;ratioP1;P1;durP2;ratioP2;P2;SDS_P1;SDS_P2;PMS_P1;PMS_P2;Temp;Humidity;BMP_temperature;BMP_pressure;BME280_temperature;BME280_humidity;BME280_pressure;Samples;Min_cycle;Max_cycle;Signal;HPM_P1;HPM_P2
2021/05/17 00:00:28;;;;;;;1.95;1.50;;;11.30;99.90;;;12.16;73.49;96758.19;5206195;28;20611;-63
2021/05/17 00:03:02;;;;;;;1.45;1.38;;;11.30;99.90;;;12.17;73.43;96765.03;5227359;28;20265;-62
2021/05/17 00:05:35;;;;;;;1.60;1.60;;;11.30;99.90;;;12.12;73.43;96770.84;5210934;28;20198;-62
2021/05/17 00:08:09;;;;;;;1.60;1.50;;;11.30;99.90;;;11.99;73.91;96766.09;5206955;28;20302;-65
2021/05/17 00:10:42;;;;;;;1.67;1.67;;;11.20;99.90;;;12.08;73.59;96758.75;5206325;28;20588;-65
2021/05/17 00:13:16;;;;;;;1.60;1.50;;;11.20;99.90;;;12.03;73.89;96756.03;5207427;28;20605;-65
2021/05/17 00:15:49;;;;;;;1.50;1.50;;;11.10;99.90;;;12.00;74.11;96758.50;5206373;28;20281;-65
2021/05/17 00:18:22;;;;;;;1.70;1.60;;;11.10;99.90;;;12.05;73.49;96750.97;5206652;28;20281;-65
2021/05/17 00:20:56;;;;;;;1.55;1.55;;;11.10;99.90;;;12.04;72.71;96754.34;5206570;28;20229;-65
2021/05/17 00:23:30;;;;;;;1.55;1.45;;;11.20;99.90;;;12.20;72.33;96758.28;5206975;28;20233;-65
2021/05/17 00:26:03;;;;;;;1.80;1.70;;;11.30;99.90;;;12.14;72.34;96752.13;5206586;28;20289;-65
2021/05/17 00:28:37;;;;;;;1.80;1.70;;;11.30;99.90;;;12.05;73.12;96763.78;5207649;28;20577;-65
2021/05/17 00:31:10;;;;;;;1.58;1.48;;;11.30;99.90;;;12.03;73.12;96763.72;5206292;28;20259;-66
2021/05/17 00:33:44;;;;;;;1.60;1.50;;;11.10;99.90;;;11.98;73.29;96756.69;5206197;28;20588;-65
2021/05/17 00:36:18;;;;;;;1.48;1.38;;;11.10;99.90;;;12.18;72.31;96750.53;5206313;28;20198;-63
2021/05/17 00:38:52;;;;;;;1.70;1.60;;;11.20;99.90;;;11.92;73.04;96752.22;5205873;28;20567;-65
2021/05/17 00:41:24;;;;;;;2.25;1.58;;;11.20;99.90;;;11.97;73.50;96760.94;5205467;28;20229;-65
2021/05/17 00:43:57;;;;;;;1.42;1.33;;;11.10;99.90;;;12.01;72.43;96761.91;5206421;28;20198;-65
2021/05/17 00:46:32;;;;;;;1.52;1.33;;;11.10;99.90;;;11.91;72.92;96765.88;5205614;28;20205;-65
2021/05/17 00:49:06;;;;;;;1.48;1.38;;;11.10;99.90;;;11.94;72.76;96768.53;5206338;28;20229;-64
2021/05/17 00:51:40;;;;;;;1.40;1.40;;;11.10;99.90;;;11.88;72.73;96765.78;5205310;28;20705;-64
2021/05/17 00:54:13;;;;;;;1.48;1.48;;;11.00;99.90;;;11.90;73.26;96764.09;5205896;28;20733;-64
2021/05/17 00:56:46;;;;;;;1.30;1.30;;;11.00;99.90;;;11.96;72.80;96759.22;5205528;28;20298;-65
2021/05/17 00:59:19;;;;;;;2.15;1.58;;;11.00;99.90;;;11.94;72.25;96760.84;5205753;28;20202;-65
2021/05/17 01:01:52;;;;;;;1.25;1.25;;;11.00;99.90;;;11.93;72.19;96761.66;5207687;28;20220;-64
2021/05/17 01:04:25;;;;;;;1.40;1.40;;;11.00;99.90;;;11.91;71.91;96758.19;5211180;28;20248;-65
2021/05/17 01:07:00;;;;;;;1.08;1.08;;;11.10;99.90;;;11.86;72.02;96762.28;5206134;28;20681;-65
2021/05/17 01:09:35;;;;;;;1.50;1.38;;;11.00;99.90;;;11.79;72.91;96771.41;5205162;28;20208;-65
2021/05/17 01:12:09;;;;;;;1.80;1.50;;;11.00;99.90;;;11.91;72.74;96765.88;5205499;28;20217;-64
2021/05/17 01:14:43;;;;;;;1.77;1.30;;;10.90;99.90;;;11.91;72.95;96771.84;5205364;28;20218;-64
2021/05/17 01:17:16;;;;;;;1.55;1.17;;;11.00;99.90;;;11.96;72.09;96764.34;5205858;28;20289;-64
2021/05/17 01:20:00;;;;;;;1.45;1.35;;;11.10;99.90;;;12.04;71.77;96768.00;5204790;28;20640;-64
2021/05/17 01:22:48;;;;;;;1.52;1.42;;;11.10;99.90;;;12.18;71.30;96765.91;5205779;28;20301;-64
2021/05/17 01:25:24;;;;;;;1.77;1.60;;;11.20;99.90;;;11.97;71.99;96765.22;5204491;28;20190;-64
2021/05/17 01:27:57;;;;;;;1.60;1.50;;;11.20;99.90;;;12.01;72.32;96757.66;5205564;28;20205;-64
2021/05/17 01:30:30;;;;;;;1.83;1.20;;;11.20;99.90;;;12.09;70.99;96763.91;5204823;28;20288;-64
2021/05/17 01:33:05;;;;;;;2.20;1.55;;;11.20;99.90;;;12.12;70.66;96769.13;5205532;28;20622;-64
2021/05/17 01:35:39;;;;;;;1.60;1.45;;;11.20;99.90;;;12.09;71.33;96771.59;5204394;28;20193;-64
2021/05/17 01:38:16;;;;;;;1.52;1.40;;;11.20;99.90;;;12.01;71.03;96773.03;5205353;28;20192;-64
2021/05/17 01:40:49;;;;;;;1.80;1.20;;;11.20;99.90;;;12.05;71.17;96777.44;5204211;28;20197;-64
2021/05/17 01:43:24;;;;;;;1.73;1.40;;;11.20;99.90;;;12.12;71.17;96774.25;5205384;28;20192;-63
2021/05/17 01:46:00;;;;;;;3.80;1.40;;;11.20;99.90;;;12.14;70.23;96780.31;5205173;28;20657;-64
2021/05/17 01:48:36;;;;;;;1.30;1.20;;;11.20;99.90;;;12.14;70.67;96772.63;5204995;28;20641;-64
2021/05/17 01:51:15;;;;;;;1.23;1.10;;;11.20;99.90;;;12.25;69.85;96774.69;5204098;28;20288;-65
2021/05/17 01:53:50;;;;;;;1.80;1.70;;;11.30;99.90;;;12.23;69.91;96776.31;5204477;28;20313;-64
2021/05/17 01:56:23;;;;;;;1.65;1.50;;;11.30;99.90;;;12.14;70.32;96775.19;5204168;28;20208;-61
2021/05/17 01:58:56;;;;;;;1.70;1.40;;;11.30;99.90;;;12.11;70.09;96769.97;5210982;28;20206;-63
2021/05/17 02:01:29;;;;;;;1.45;1.42;;;11.30;99.90;;;12.17;70.01;96782.97;5204458;28;20309;-64
2021/05/17 02:04:04;;;;;;;2.80;1.42;;;11.40;99.90;;;12.14;69.66;96777.75;5205354;28;20666;-62
2021/05/17 02:06:37;;;;;;;1.60;1.50;;;11.40;99.90;;;12.17;69.36;96779.53;5203726;28;20204;-63
2021/05/17 02:09:12;;;;;;;1.33;1.23;;;11.30;99.90;;;12.24;68.95;96775.47;5204622;28;20285;-63
2021/05/17 02:11:45;;;;;;;1.50;1.40;;;11.40;99.90;;;12.18;69.77;96774.47;5203962;28;20241;-63
2021/05/17 02:14:21;;;;;;;1.55;1.48;;;11.30;99.90;;;12.21;69.19;96776.25;5205231;28;20253;-61
2021/05/17 02:16:55;;;;;;;1.40;1.30;;;11.40;99.90;;;12.08;69.60;96780.13;5204943;28;20204;-62
2021/05/17 02:19:28;;;;;;;1.40;1.30;;;11.30;99.90;;;12.02;69.48;96779.91;5204917;28;20206;-60
2021/05/17 02:22:01;;;;;;;1.88;1.63;;;11.20;99.90;;;12.12;69.72;96779.38;5203837;28;20670;-63
2021/05/17 02:24:34;;;;;;;1.10;1.00;;;11.20;99.90;;;12.16;69.40;96778.69;5203966;28;20204;-63
2021/05/17 02:27:09;;;;;;;1.40;1.30;;;11.30;99.90;;;12.17;68.35;96775.28;5204557;28;20632;-64
2021/05/17 02:29:42;;;;;;;1.30;1.20;;;11.40;99.90;;;12.03;69.07;96780.78;5204542;28;20296;-63
2021/05/17 02:32:20;;;;;;;1.50;1.40;;;11.30;99.90;;;12.11;68.41;96779.34;5204429;28;20216;-62
2021/05/17 02:34:54;;;;;;;2.40;1.40;;;11.40;99.90;;;12.06;68.83;96781.75;5204506;28;20267;-63
2021/05/17 02:37:27;;;;;;;1.70;1.60;;;11.30;99.90;;;12.11;68.80;96787.91;5209106;28;20193;-63
2021/05/17 02:40:00;;;;;;;1.27;1.27;;;11.20;99.90;;;12.10;69.23;96777.59;5213212;28;20657;-63
2021/05/17 02:42:35;;;;;;;1.60;1.50;;;11.20;99.90;;;12.03;69.07;96781.63;5204024;28;20217;-63
2021/05/17 02:45:09;;;;;;;2.38;1.50;;;11.20;99.90;;;12.01;68.60;96790.09;5203914;28;20632;-63
2021/05/17 02:47:43;;;;;;;1.58;1.48;;;11.20;99.90;;;12.10;68.08;96787.84;5204800;28;20299;-63
2021/05/17 02:50:17;;;;;;;1.63;1.52;;;11.20;99.90;;;12.05;68.30;96785.13;5203943;28;20194;-62
2021/05/17 02:52:50;;;;;;;1.77;1.20;;;11.20;99.90;;;12.03;67.65;96783.34;5244160;22;20226;-62
2021/05/17 02:55:30;;;;;;;1.13;1.02;;;11.30;99.90;;;12.07;67.78;96787.72;5227514;28;20580;-62
2021/05/17 02:58:07;;;;;;;1.40;1.30;;;11.30;99.90;;;12.03;67.81;96788.47;5228440;28;20212;-62
2021/05/17 03:00:39;;;;;;;1.23;1.17;;;11.20;99.90;;;11.98;67.93;96787.41;5228943;28;20228;-62
2021/05/17 03:03:14;;;;;;;1.27;1.27;;;11.20;99.90;;;12.00;68.22;96798.59;5217043;28;20305;-62
2021/05/17 03:06:02;;;;;;;1.20;1.20;;;11.20;99.90;;;11.98;68.56;96808.78;5213246;28;20203;-62
2021/05/17 03:08:50;;;;;;;1.40;1.38;;;11.10;99.90;;;11.90;68.75;96803.41;5223544;28;20204;-63
2021/05/17 03:11:24;;;;;;;1.27;1.17;;;11.10;99.90;;;11.88;68.37;96811.84;5215158;28;20253;-63
2021/05/17 03:13:59;;;;;;;1.23;1.17;;;11.10;99.90;;;12.04;67.83;96806.41;5208143;28;20243;-62
2021/05/17 03:16:32;;;;;;;1.73;1.38;;;11.10;99.90;;;12.02;67.88;96802.97;5208389;28;20258;-62
2021/05/17 03:19:08;;;;;;;1.65;1.35;;;11.10;99.90;;;12.06;66.80;96801.38;5188225;28;20205;-62
2021/05/17 03:21:43;;;;;;;1.23;1.23;;;11.20;99.90;;;12.05;67.08;96815.88;5212795;28;20675;-63
2021/05/17 03:24:16;;;;;;;1.30;1.30;;;11.20;99.90;;;12.09;66.71;96812.56;5211428;28;20641;-62
2021/05/17 03:26:50;;;;;;;1.17;1.17;;;11.20;99.90;;;12.03;67.59;96814.94;5209751;28;20224;-63
2021/05/17 03:29:23;;;;;;;1.25;1.15;;;11.20;99.90;;;12.06;66.57;96809.91;5222463;28;20629;-62
2021/05/17 03:31:56;;;;;;;2.35;1.50;;;11.20;99.90;;;12.08;66.40;96825.34;5208690;28;20687;-62
2021/05/17 03:34:28;;;;;;;1.40;1.30;;;11.20;99.90;;;12.11;66.16;96830.56;5208174;28;20591;-60
2021/05/17 03:37:01;;;;;;;1.20;1.20;;;11.20;99.90;;;12.09;66.13;96821.97;5208066;28;20200;-62
2021/05/17 03:39:35;;;;;;;1.52;1.38;;;11.20;99.90;;;12.06;66.85;96832.97;5207754;28;20572;-62
2021/05/17 03:42:07;;;;;;;1.35;1.25;;;11.30;99.90;;;11.93;67.31;96831.69;5209752;28;20252;-61
2021/05/17 03:44:41;;;;;;;1.38;1.27;;;11.10;99.90;;;12.11;66.57;96840.81;5215148;28;20277;-62
2021/05/17 03:47:14;;;;;;;1.25;1.25;;;11.20;99.90;;;12.07;67.37;96837.25;5208790;28;20194;-62
2021/05/17 03:49:46;;;;;;;1.40;1.35;;;11.20;99.90;;;12.05;66.78;96836.34;5207034;28;20201;-62
2021/05/17 03:52:19;;;;;;;1.33;1.20;;;11.20;99.90;;;12.01;67.21;96837.06;5207583;28;20226;-62
2021/05/17 03:54:52;;;;;;;1.15;1.15;;;11.20;99.90;;;12.02;67.77;96830.22;5206842;28;20222;-61
2021/05/17 03:57:25;;;;;;;0.90;0.90;;;11.10;99.90;;;12.17;66.75;96836.78;5210647;28;20203;-61
2021/05/17 03:59:58;;;;;;;1.55;1.45;;;11.20;99.90;;;12.17;66.90;96841.88;5207211;28;20293;-61
2021/05/17 04:02:31;;;;;;;1.42;1.15;;;11.30;99.90;;;12.03;67.72;96845.66;5205680;28;20217;-62
2021/05/17 04:05:16;;;;;;;2.53;1.08;;;11.10;99.90;;;12.08;67.69;96851.81;5207426;28;20288;-62
2021/05/17 04:08:10;;;;;;;1.42;1.10;;;11.20;99.90;;;12.10;67.34;96852.75;5206186;28;20237;-62
2021/05/17 04:13:33;;;;;;;1.40;1.30;;;11.40;99.90;;;12.00;67.69;96855.81;5214718;28;20305;-62
2021/05/17 04:16:07;;;;;;;1.35;1.30;;;11.30;99.90;;;12.08;67.63;96856.94;5207130;28;20217;-61
2021/05/17 04:18:41;;;;;;;1.38;1.27;;;11.30;99.90;;;12.20;67.36;96859.06;5220968;28;20292;-62
2021/05/17 04:21:14;;;;;;;1.45;1.35;;;11.40;99.90;;;12.08;68.28;96862.06;5218605;28;20227;-62
2021/05/17 04:23:46;;;;;;;1.60;1.50;;;11.30;99.90;;;12.15;68.13;96861.44;5207009;28;20194;-62
2021/05/17 04:26:19;;;;;;;1.80;1.20;;;11.20;99.90;;;12.24;67.35;96860.03;5221446;28;20193;-62
2021/05/17 04:28:52;;;;;;;1.45;1.20;;;11.30;99.90;;;12.14;67.80;96864.84;5203857;28;20202;-63
2021/05/17 04:31:25;;;;;;;1.75;1.25;;;11.30;99.90;;;12.13;67.50;96863.13;5205846;28;20228;-63
2021/05/17 04:33:58;;;;;;;1.40;1.30;;;11.30;99.90;;;12.12;67.74;96857.91;5200952;28;20211;-61
2021/05/17 04:36:31;;;;;;;1.58;1.42;;;11.30;99.90;;;12.08;67.29;96862.06;5207138;28;20666;-62
2021/05/17 04:39:05;;;;;;;2.47;1.55;;;11.30;99.90;;;12.14;67.67;96861.41;5218298;28;20206;-61
2021/05/17 04:41:37;;;;;;;1.45;1.35;;;11.30;99.90;;;11.97;68.42;96857.41;5205891;28;20218;-62
2021/05/17 04:44:11;;;;;;;1.50;1.40;;;11.20;99.90;;;12.05;67.96;96867.09;5213577;28;20637;-62
2021/05/17 04:46:44;;;;;;;1.60;1.50;;;11.30;99.90;;;12.08;68.30;96872.31;5226608;28;20235;-62
2021/05/17 04:49:17;;;;;;;2.80;1.67;;;11.30;99.90;;;12.09;67.82;96874.06;5205027;28;20229;-62
2021/05/17 04:51:51;;;;;;;1.63;1.52;;;11.20;99.90;;;12.15;68.41;96874.25;5206271;28;20230;-62
2021/05/17 04:54:23;;;;;;;1.40;1.30;;;11.30;99.90;;;12.24;68.16;96877.97;5212092;28;20320;-62
2021/05/17 04:56:56;;;;;;;1.20;1.20;;;11.30;99.90;;;12.22;67.63;96879.59;5207209;28;20198;-62
2021/05/17 04:59:29;;;;;;;1.70;1.60;;;11.40;99.90;;;12.27;67.54;96878.06;5207157;28;20290;-62
2021/05/17 05:02:03;;;;;;;2.03;1.30;;;11.40;99.90;;;12.26;67.81;96886.59;5204630;28;20304;-62
2021/05/17 05:04:35;;;;;;;1.33;1.23;;;11.40;99.90;;;12.12;68.15;96889.53;5206980;28;20324;-62
2021/05/17 05:07:08;;;;;;;1.42;1.25;;;11.20;99.90;;;12.17;67.75;96882.00;5205494;28;20285;-62
2021/05/17 05:09:41;;;;;;;1.63;1.52;;;11.30;99.90;;;12.34;66.59;96890.28;5191870;28;20194;-62
2021/05/17 05:12:14;;;;;;;1.40;1.30;;;11.50;99.90;;;12.24;67.12;96888.22;5192649;28;20217;-62
2021/05/17 05:14:46;;;;;;;1.80;1.20;;;11.50;99.90;;;12.28;68.00;96890.94;5204848;28;20392;-64
2021/05/17 05:17:20;;;;;;;1.63;1.50;;;11.50;99.90;;;12.37;66.96;96895.50;5207014;28;20206;-63
2021/05/17 05:19:52;;;;;;;2.45;1.50;;;11.70;99.90;;;12.46;66.70;96895.81;5205428;28;20293;-62
2021/05/17 05:22:25;;;;;;;1.50;1.40;;;11.70;99.90;;;12.45;65.90;96890.63;5206699;28;20214;-63
2021/05/17 05:24:58;;;;;;;1.50;1.40;;;11.60;99.90;;;12.42;66.20;96901.69;5212739;28;20304;-62
2021/05/17 05:27:34;;;;;;;1.13;1.13;;;11.60;99.90;;;12.55;65.72;96896.13;5215071;28;20289;-62
2021/05/17 05:30:19;;;;;;;1.85;1.67;;;11.80;99.90;;;12.46;65.92;96910.34;5214990;28;20228;-63
2021/05/17 05:32:55;;;;;;;1.20;1.10;;;11.70;99.90;;;12.43;66.68;96905.09;5212790;28;20305;-63
2021/05/17 05:35:28;;;;;;;1.45;1.35;;;11.70;99.90;;;12.44;65.96;96919.66;5212045;28;20329;-62
2021/05/17 05:38:01;;;;;;;1.90;1.60;;;11.70;99.90;;;12.36;66.46;96914.25;5212744;28;20205;-61
2021/05/17 05:40:33;;;;;;;2.00;1.27;;;11.60;99.90;;;12.38;65.74;96910.06;5216157;28;20232;-62
2021/05/17 05:43:06;;;;;;;1.58;1.48;;;11.60;99.90;;;12.39;66.11;96922.06;5204045;28;20228;-62
2021/05/17 05:45:44;;;;;;;2.60;1.48;;;11.60;99.90;;;12.43;66.12;96920.47;5208433;28;20194;-62
2021/05/17 05:48:18;;;;;;;2.70;2.08;;;11.60;99.90;;;12.43;65.95;96916.22;5203057;28;20275;-62
2021/05/17 05:50:52;;;;;;;1.60;1.42;;;11.60;99.90;;;12.55;65.17;96919.19;5203130;28;20204;-61
2021/05/17 05:53:25;;;;;;;1.63;1.52;;;11.80;99.90;;;12.76;65.41;96918.16;5203556;28;20210;-62
2021/05/17 05:55:59;;;;;;;1.70;1.42;;;11.90;99.90;;;12.90;64.69;96926.31;5203827;28;20315;-62
2021/05/17 05:58:32;;;;;;;1.42;1.40;;;12.10;99.90;;;13.01;63.51;96923.28;5206025;28;20210;-61
2021/05/17 06:01:05;;;;;;;1.30;1.20;;;12.20;99.90;;;13.15;64.19;96925.44;5204608;28;20216;-62
2021/05/17 06:03:39;;;;;;;2.10;1.60;;;12.30;99.90;;;13.32;61.83;96926.00;5203073;28;20291;-62
2021/05/17 06:06:13;;;;;;;1.40;1.30;;;12.40;99.90;;;13.23;62.36;96934.25;5202629;28;20701;-62
2021/05/17 06:08:46;;;;;;;1.40;1.40;;;12.40;99.90;;;13.30;61.96;96938.75;5202700;28;20290;-62
2021/05/17 06:11:19;;;;;;;1.30;1.17;;;12.30;99.90;;;13.43;62.90;96935.75;5209098;28;20304;-62
2021/05/17 06:13:53;;;;;;;1.25;1.23;;;12.40;99.90;;;13.47;62.67;96940.16;5217958;28;20240;-63
2021/05/17 06:16:26;;;;;;;1.40;1.30;;;12.50;99.90;;;13.47;62.83;96939.28;5203081;28;20217;-63
2021/05/17 06:19:01;;;;;;;1.40;1.30;;;12.50;99.90;;;13.41;61.64;96933.97;5202490;28;51989;-63
2021/05/17 06:21:34;;;;;;;1.35;1.27;;;12.50;99.90;;;13.47;61.45;96942.72;5200138;28;21076;-63
2021/05/17 06:24:11;;;;;;;0.90;0.90;;;12.60;99.90;;;13.49;61.25;96938.50;5200664;28;20296;-63
2021/05/17 06:26:44;;;;;;;2.60;1.20;;;12.50;99.90;;;13.54;61.12;96943.81;5201280;28;20284;-63
2021/05/17 06:29:17;;;;;;;1.30;1.15;;;12.50;99.90;;;13.57;60.75;96950.72;5203954;28;20296;-62
2021/05/17 06:31:54;;;;;;;1.63;1.52;;;12.60;99.90;;;13.46;61.04;96938.41;5205528;28;20232;-62
2021/05/17 06:34:28;;;;;;;1.50;1.40;;;12.50;99.90;;;13.26;62.41;96949.75;5206674;28;20277;-63
2021/05/17 06:37:01;;;;;;;1.10;1.10;;;12.30;99.90;;;13.40;61.27;96951.06;5206732;28;20225;-62
2021/05/17 06:39:39;;;;;;;1.23;1.23;;;12.40;99.90;;;13.40;61.88;96951.06;5205639;28;20197;-63
2021/05/17 06:42:13;;;;;;;1.15;1.10;;;12.30;99.90;;;13.34;61.00;96952.59;5207097;28;20213;-62
2021/05/17 06:44:47;;;;;;;1.42;1.30;;;12.30;99.90;;;13.33;60.72;96955.94;5205072;28;20284;-63
2021/05/17 06:47:20;;;;;;;1.40;1.40;;;12.30;99.90;;;13.25;61.71;96953.13;5205814;28;20198;-63
2021/05/17 06:49:54;;;;;;;1.88;1.42;;;12.30;99.90;;;13.43;62.05;96951.16;5207141;28;20682;-63
2021/05/17 06:52:27;;;;;;;1.30;1.30;;;12.40;99.90;;;13.37;61.04;96957.81;5207634;28;20225;-63
2021/05/17 06:55:03;;;;;;;1.92;1.38;;;12.30;99.90;;;13.37;61.08;96952.69;5206715;28;20660;-63
2021/05/17 06:57:47;;;;;;;1.65;1.55;;;12.50;99.90;;;13.24;61.30;96956.50;5206473;28;20294;-61
2021/05/17 07:00:27;;;;;;;1.50;1.40;;;12.40;99.90;;;13.13;62.15;96962.97;5204791;28;20281;-63
2021/05/17 07:03:01;;;;;;;3.03;1.75;;;12.20;99.90;;;13.18;62.66;96966.56;5207333;28;20221;-63
2021/05/17 07:05:37;;;;;;;1.77;1.63;;;12.20;99.90;;;13.22;61.85;96968.41;5206166;28;20193;-62
2021/05/17 07:13:52;;;;;;;1.20;1.20;;;12.20;99.90;;;13.20;62.73;96970.94;5207456;28;20237;-62
2021/05/17 07:16:24;;;;;;;2.13;1.45;;;12.30;99.90;;;13.13;62.58;96974.09;5210902;28;20228;-62
2021/05/17 07:18:57;;;;;;;1.30;1.20;;;12.30;99.90;;;13.19;62.37;96978.56;5208011;28;20209;-62
2021/05/17 07:24:22;;;;;;;1.48;1.40;;;12.50;99.90;;;13.41;62.34;96993.00;5207071;28;20582;-62
2021/05/17 07:26:55;;;;;;;2.03;1.48;;;12.40;99.90;;;13.43;62.75;96989.66;5208521;28;20192;-63
2021/05/17 07:29:31;;;;;;;1.25;1.15;;;12.40;99.90;;;13.55;62.03;96996.00;5209059;28;20201;-62
2021/05/17 07:32:07;;;;;;;1.30;1.30;;;12.50;99.90;;;13.68;61.70;96999.03;5212344;28;20213;-62
2021/05/17 07:34:40;;;;;;;1.65;1.40;;;12.70;99.90;;;13.82;61.23;96993.41;5187510;28;20206;-62
2021/05/17 07:37:15;;;;;;;1.55;1.45;;;13.00;99.90;;;13.84;61.59;97002.03;5196593;28;20230;-63
2021/05/17 07:39:47;;;;;;;1.38;1.27;;;13.00;99.90;;;13.84;60.70;97002.91;5203392;28;20288;-63
2021/05/17 07:42:20;;;;;;;1.40;1.30;;;12.90;99.90;;;13.88;60.95;97002.19;5207116;28;20218;-63
2021/05/17 07:44:52;;;;;;;1.27;1.25;;;12.90;99.90;;;14.09;61.05;97001.09;5207019;28;20236;-63
2021/05/17 07:47:25;;;;;;;1.67;1.45;;;13.10;99.90;;;14.27;60.74;97001.59;5206324;28;20281;-63
2021/05/17 07:49:58;;;;;;;2.60;1.50;;;13.40;99.90;;;14.37;60.27;96998.47;5204301;28;20201;-63
2021/05/17 07:52:31;;;;;;;1.30;1.30;;;13.50;99.90;;;14.54;59.02;97004.13;5205981;28;20372;-63
2021/05/17 07:55:05;;;;;;;1.33;1.20;;;13.60;99.90;;;14.72;58.25;97006.31;5210725;28;20204;-63
2021/05/17 07:57:38;;;;;;;1.80;1.35;;;13.80;99.90;;;14.82;58.46;97012.56;5217394;28;20610;-63
2021/05/17 08:00:13;;;;;;;1.52;1.40;;;13.90;99.90;;;14.71;58.50;97007.16;5206742;28;20619;-61
2021/05/17 08:02:45;;;;;;;1.98;1.35;;;13.70;99.90;;;14.68;58.30;97014.81;5217826;28;20223;-63
2021/05/17 08:05:18;;;;;;;1.10;1.10;;;13.70;99.90;;;14.87;58.69;97011.88;5208811;28;20247;-63
2021/05/17 08:07:52;;;;;;;1.60;1.20;;;13.70;99.90;;;15.16;57.75;97014.31;5202413;28;20559;-63
2021/05/17 08:10:25;;;;;;;1.40;1.30;;;14.20;99.90;;;15.59;56.62;97017.94;5207951;28;20279;-63
2021/05/17 08:12:57;;;;;;;1.42;1.15;;;14.60;99.90;;;15.90;55.43;97017.00;5206335;28;20423;-62
2021/05/17 08:15:30;;;;;;;3.25;1.30;;;15.10;99.90;;;16.12;53.04;97020.06;5205582;28;20249;-63
2021/05/17 08:18:05;;;;;;;1.33;1.15;;;15.30;99.90;;;16.12;53.61;97015.75;5204298;28;21044;-63
2021/05/17 08:20:37;;;;;;;1.58;1.13;;;15.20;99.90;;;16.39;54.04;97019.75;5205233;28;20239;-63
2021/05/17 08:23:16;;;;;;;1.27;1.17;;;15.30;99.90;;;16.59;52.95;97018.44;5215647;28;20235;-63
2021/05/17 08:25:49;;;;;;;1.48;1.30;;;15.50;99.90;;;16.59;52.63;97017.56;5205642;28;20271;-63
2021/05/17 08:28:21;;;;;;;1.83;1.20;;;15.30;99.90;;;16.47;53.16;97013.03;5207093;28;20206;-63
2021/05/17 08:30:56;;;;;;;1.00;1.00;;;15.20;99.90;;;16.50;53.18;97017.41;5205789;28;20194;-63
2021/05/17 08:33:30;;;;;;;1.90;1.35;;;15.20;99.90;;;16.38;52.85;97010.28;5207628;28;20212;-63
2021/05/17 08:36:04;;;;;;;3.13;1.50;;;15.00;99.90;;;16.14;52.54;97016.69;5204302;28;20304;-63
2021/05/17 08:38:38;;;;;;;1.73;1.58;;;14.80;99.90;;;16.03;52.84;97013.00;5206648;28;20294;-63
2021/05/17 08:41:12;;;;;;;2.03;1.52;;;14.80;99.90;;;15.98;52.96;97017.16;5205286;28;20201;-63
2021/05/17 08:43:45;;;;;;;1.48;1.38;;;14.90;99.90;;;15.80;53.23;97016.78;5205517;28;20217;-63
2021/05/17 08:46:18;;;;;;;1.48;1.35;;;14.70;99.90;;;15.89;52.83;97006.66;5213794;28;20236;-63
2021/05/17 08:48:51;;;;;;;1.40;1.27;;;14.80;99.90;;;15.88;53.63;97004.91;5208413;28;20336;-63
2021/05/17 08:51:27;;;;;;;1.27;1.17;;;14.80;99.90;;;16.30;53.02;97010.13;5205017;28;20236;-62
2021/05/17 08:54:05;;;;;;;1.85;1.17;;;15.40;99.90;;;16.66;51.38;96999.69;5184295;28;20214;-62
2021/05/17 08:56:43;;;;;;;1.33;1.23;;;15.90;99.30;;;16.85;51.22;97011.25;5188243;28;20308;-61
2021/05/17 08:59:19;;;;;;;1.40;1.30;;;16.10;99.10;;;16.99;49.67;97008.91;5204200;28;20198;-63
2021/05/17 09:01:52;;;;;;;2.08;1.10;;;16.30;97.50;;;17.13;49.90;97006.56;5203777;28;20316;-63
2021/05/17 09:04:24;;;;;;;1.40;1.30;;;16.50;98.00;;;17.39;50.09;97014.75;5202584;28;20320;-63
2021/05/17 09:06:58;;;;;;;1.10;1.08;;;16.40;98.20;;;17.28;48.95;97016.28;5207541;28;20300;-63
2021/05/17 09:09:36;;;;;;;1.45;1.10;;;16.20;97.70;;;17.22;49.47;97006.72;5209702;28;20198;-63
2021/05/17 09:12:11;;;;;;;1.95;1.10;;;16.10;98.20;;;17.25;49.31;97008.50;5203723;28;20266;-63
2021/05/17 09:14:44;;;;;;;1.27;1.08;;;16.10;98.30;;;16.86;49.87;97007.81;5204039;28;20225;-63
2021/05/17 09:17:17;;;;;;;1.45;1.33;;;15.70;98.40;;;16.63;49.94;97009.94;5217124;22;20677;-65
2021/05/17 09:19:49;;;;;;;2.22;1.42;;;15.50;98.40;;;16.50;50.54;97018.25;5198813;28;20608;-64
2021/05/17 09:22:23;;;;;;;1.30;1.20;;;15.50;98.60;;;16.41;51.82;97016.38;5199905;28;20208;-60
2021/05/17 09:24:58;;;;;;;1.73;1.30;;;15.50;99.20;;;16.42;52.12;97017.22;5190906;28;20684;-63
2021/05/17 09:27:31;;;;;;;1.35;1.25;;;15.40;99.40;;;16.59;51.41;97018.44;5203643;28;20707;-63
2021/05/17 09:30:06;;;;;;;1.55;1.17;;;15.60;99.20;;;16.77;51.30;97009.34;5203103;28;20198;-64
2021/05/17 09:32:38;;;;;;;2.15;1.40;;;15.80;99.20;;;16.81;50.52;97009.44;5202827;28;20198;-64
2021/05/17 09:35:15;;;;;;;1.90;1.30;;;15.70;98.70;;;16.85;50.25;97019.00;5203571;28;20210;-64
2021/05/17 09:37:51;;;;;;;1.27;1.17;;;15.70;98.60;;;16.92;50.51;97012.25;5203457;28;20221;-64
2021/05/17 09:40:27;;;;;;;1.90;1.20;;;15.60;98.90;;;16.95;50.41;97007.13;5203296;28;20288;-64
2021/05/17 09:43:01;;;;;;;1.60;1.50;;;15.60;99.10;;;16.93;50.07;97019.13;5202510;28;20200;-63
2021/05/17 09:45:49;;;;;;;1.35;1.08;;;15.60;98.50;;;16.93;48.37;97008.81;5203154;28;20247;-64
2021/05/17 09:48:25;;;;;;;1.48;1.25;;;15.80;97.40;;;16.98;48.08;97021.81;5203596;28;20292;-63
2021/05/17 09:51:08;;;;;;;1.95;1.15;;;16.00;96.30;;;17.04;48.33;97022.78;5202251;28;20190;-64
2021/05/17 09:53:44;;;;;;;1.25;1.00;;;16.00;96.60;;;17.20;48.43;97012.75;5202098;28;20281;-64
2021/05/17 09:56:22;;;;;;;1.00;1.00;;;16.20;96.80;;;17.46;47.68;97018.34;5191390;28;20251;-64
2021/05/17 09:58:57;;;;;;;1.42;1.30;;;16.70;96.30;;;17.75;47.73;97005.88;5195332;28;20221;-63
2021/05/17 10:01:31;;;;;;;2.63;1.40;;;16.90;96.10;;;18.05;47.54;96996.84;5202522;28;20633;-64
2021/05/17 10:04:05;;;;;;;2.10;1.10;;;17.30;95.90;;;18.19;46.16;96998.75;5201610;28;20697;-63
2021/05/17 10:06:39;;;;;;;1.17;0.95;;;17.60;94.90;;;18.30;46.63;96992.88;5203203;28;20259;-63
2021/05/17 10:09:12;;;;;;;2.10;1.17;;;17.70;95.00;;;18.20;45.92;96997.94;5201358;28;20202;-64
2021/05/17 10:11:46;;;;;;;1.20;1.10;;;17.40;94.50;;;18.13;45.67;97000.41;5200859;28;20298;-64
2021/05/17 10:14:19;;;;;;;1.98;1.08;;;17.20;94.40;;;17.88;44.99;96997.47;5201954;28;20204;-64
2021/05/17 10:16:52;;;;;;;1.77;1.20;;;16.90;94.20;;;17.58;46.93;96999.56;5202048;28;20697;-64
2021/05/17 10:19:25;;;;;;;1.90;1.25;;;16.60;95.10;;;17.38;47.10;97010.44;5201181;28;20461;-63
2021/05/17 10:21:57;;;;;;;1.02;1.00;;;16.40;95.60;;;17.24;47.93;97019.69;5201099;28;20202;-62
2021/05/17 10:24:30;;;;;;;2.38;1.13;;;16.30;95.70;;;16.72;49.09;97022.16;5202338;28;20197;-63
2021/05/17 10:27:09;;;;;;;4.22;1.08;;;16.00;96.10;;;16.65;49.35;97016.00;5200852;28;20261;-63
2021/05/17 10:29:42;;;;;;;2.05;1.40;;;15.90;96.70;;;16.78;48.72;97024.00;5201928;28;20280;-63
2021/05/17 10:32:15;;;;;;;1.70;1.20;;;16.10;95.80;;;16.80;48.97;97035.25;5200828;28;20201;-59
2021/05/17 10:34:48;;;;;;;1.98;1.23;;;16.10;96.20;;;16.49;52.64;97038.88;5202612;28;20778;-64
2021/05/17 10:37:21;;;;;;;1.33;1.00;;;15.70;98.50;;;16.39;56.40;97027.50;5202071;28;20605;-64
2021/05/17 10:40:03;;;;;;;1.58;1.30;;;15.50;99.90;;;16.29;60.16;97021.28;5200836;28;20256;-64
2021/05/17 10:42:51;;;;;;;1.20;1.20;;;15.30;99.90;;;16.23;61.43;97018.59;5196099;28;20292;-64
2021/05/17 10:48:27;;;;;;;2.28;1.25;;;15.70;99.90;;;16.79;56.75;97005.09;5201996;28;20289;-64
2021/05/17 10:51:14;;;;;;;1.20;1.20;;;16.00;99.90;;;16.96;54.53;97000.25;5197883;28;20657;-64
2021/05/17 10:53:54;;;;;;;1.20;1.10;;;16.10;99.90;;;17.09;52.73;97000.50;5201094;28;20301;-65
2021/05/17 10:56:52;;;;;;;1.20;1.13;;;16.20;99.90;;;17.31;52.14;96990.50;5201303;28;20308;-65
2021/05/17 11:02:34;;;;;;;1.05;0.95;;;16.80;98.70;;;17.82;48.50;96989.63;5201859;28;20198;-65
2021/05/17 11:05:12;;;;;;;1.48;1.17;;;17.00;96.80;;;17.80;49.62;96991.34;5192946;28;20197;-64
2021/05/17 11:07:48;;;;;;;1.75;1.00;;;17.00;97.50;;;18.04;49.26;96995.13;5202702;28;20309;-64